Weather History for Claxton, GA

Change the Weather History Date:

Tuesday, March 26, 2013

  Actual Average (KSAV) Record (KSAV)
Temperature  
Mean Temperature 43 °F 61 °F  
Max Temperature 51 °F 73 °F 88 °F (1929)
Min Temperature 35 °F 50 °F 34 °F (1979)
Degree Days  
Heating Degree Days 22 5  
Month to date heating degree days 187  
Since 1 July heating degree days 1704  
Cooling Degree Days 0 1  
Month to date cooling degree days 26  
Year to date cooling degree days 36  
Moisture  
Dew Point 28 °F    
Average Humidity 56    
Maximum Humidity 75    
Minimum Humidity 41    
Precipitation  
Precipitation 0.00 in 0.12 in 1.40 in (1892)
Month to date precipitation 3.10  
Year to date precipitation 9.58  
Snow  
Snow 0.00 in 0.00 in 0.00 in (2002)
Month to date snowfall 0.0  
Since 1 July snowfall 0.3  
Snow Depth -    
Sea Level Pressure  
Sea Level Pressure 30.13 in    
Wind  
Wind Speed 11 mph (WNW)    
Max Wind Speed 22 mph    
Max Gust Speed 30 mph    
Visibility 10 miles    
Events      
T = Trace of Precipitation, MM = Missing Value Source: NWS Daily Summary

Daily Weather History Graph

Daily Weather History Graph

Search for Another Location

Airport:

Trip Planner

Search our weather history database for the weather conditions in past years. The results will help you decide how hot, cold, wet, or windy it might be!

Date:

Astronomy

Mar. 26, 2013 Rise Set
Actual Time 7:23 AM EDT 7:43 PM EDT
Civil Twilight 6:58 AM EDT 8:07 PM EDT
Nautical Twilight 6:30 AM EDT 8:36 PM EDT
Astronomical Twilight 6:00 AM EDT 9:05 PM EDT
Moon 7:17 PM EDT (3/26) 6:37 AM EDT (3/26)
Length of Visible Light 13h 09m
Length of Day
12h 20m
Waxing Gibbous, 99% of the Moon is Illuminated
Mar 26
Waxing Gibbous
Mar 27
Full
Apr 3
Last Quarter
Apr 10
New
Apr 18
First Quarter

Hourly Weather History & Observations

Time (EDT) Temp. Windchill Dew Point Humidity Pressure Visibility Wind Dir Wind Speed Gust Speed Precip Events Conditions
12:15 AM 42.8 °F 37.0 °F 26.6 °F 53% 30.06 in 10.0 mi NW 10.4 mph 17.3 mph N/A   Clear
12:35 AM 42.8 °F 35.4 °F 26.6 °F 53% 30.06 in 10.0 mi NW 15.0 mph - N/A   Clear
12:55 AM 42.8 °F 37.5 °F 26.6 °F 53% 30.07 in 10.0 mi NW 9.2 mph 16.1 mph N/A   Clear
1:15 AM 41.0 °F 35.8 °F 26.6 °F 57% 30.08 in 10.0 mi WNW 8.1 mph - N/A   Clear
1:35 AM 41.0 °F 35.8 °F 26.6 °F 57% 30.08 in 10.0 mi NW 8.1 mph - N/A   Clear
1:55 AM 41.0 °F 35.2 °F 26.6 °F 57% 30.08 in 10.0 mi WNW 9.2 mph 16.1 mph N/A   Clear
2:15 AM 41.0 °F 35.2 °F 26.6 °F 57% 30.08 in 10.0 mi WNW 9.2 mph - N/A   Clear
2:55 AM 39.2 °F 34.2 °F 26.6 °F 61% 30.08 in 10.0 mi West 6.9 mph - N/A   Clear
3:15 AM 37.4 °F 32.8 °F 28.4 °F 70% 30.08 in 10.0 mi WNW 5.8 mph - N/A   Clear
3:55 AM 37.4 °F 30.8 °F 26.6 °F 65% 30.07 in 10.0 mi WNW 9.2 mph 16.1 mph N/A   Clear
4:15 AM 37.4 °F 31.4 °F 26.6 °F 65% 30.07 in 10.0 mi West 8.1 mph - N/A   Clear
4:35 AM 37.4 °F 31.4 °F 28.4 °F 70% 30.07 in 10.0 mi West 8.1 mph - N/A   Clear
4:55 AM 37.4 °F 29.8 °F 26.6 °F 65% 30.07 in 10.0 mi West 11.5 mph 16.1 mph N/A   Clear
5:15 AM 37.4 °F 30.8 °F 26.6 °F 65% 30.06 in 10.0 mi West 9.2 mph - N/A   Clear
5:35 AM 37.4 °F 30.8 °F 26.6 °F 65% 30.07 in 10.0 mi West 9.2 mph - N/A   Clear
5:55 AM 37.4 °F 31.4 °F 26.6 °F 65% 30.07 in 10.0 mi West 8.1 mph - N/A   Clear
6:15 AM 37.4 °F 30.8 °F 26.6 °F 65% 30.07 in 10.0 mi West 9.2 mph - N/A   Clear
6:35 AM 35.6 °F 29.9 °F 26.6 °F 70% 30.08 in 10.0 mi West 6.9 mph - N/A   Clear
6:55 AM 35.6 °F 29.2 °F 26.6 °F 70% 30.08 in 10.0 mi West 8.1 mph - N/A   Clear
7:15 AM 35.6 °F 28.6 °F 26.6 °F 70% 30.08 in 10.0 mi West 9.2 mph - N/A   Clear
7:35 AM 35.6 °F 30.7 °F 26.6 °F 70% 30.09 in 10.0 mi West 5.8 mph - N/A   Clear
7:55 AM 35.6 °F 30.7 °F 28.4 °F 75% 30.10 in 10.0 mi West 5.8 mph - N/A   Clear
8:15 AM 37.4 °F 31.4 °F 28.4 °F 70% 30.10 in 10.0 mi West 8.1 mph - N/A   Clear
8:35 AM 37.4 °F 30.3 °F 28.4 °F 70% 30.11 in 10.0 mi West 10.4 mph 17.3 mph N/A   Clear
8:55 AM 39.2 °F 31.6 °F 28.4 °F 65% 30.12 in 10.0 mi West 12.7 mph 18.4 mph N/A   Clear
9:15 AM 41.0 °F 34.3 °F 28.4 °F 61% 30.12 in 10.0 mi West 11.5 mph 18.4 mph N/A   Clear
9:35 AM 41.0 °F 32.8 °F 28.4 °F 61% 30.12 in 10.0 mi West 16.1 mph 23.0 mph N/A   Clear
9:55 AM 42.8 °F 36.2 °F 28.4 °F 57% 30.12 in 10.0 mi WNW 12.7 mph 21.9 mph N/A   Clear
10:15 AM 42.8 °F 35.8 °F 28.4 °F 57% 30.12 in 10.0 mi WNW 13.8 mph 24.2 mph N/A   Clear
10:35 AM 44.6 °F 36.9 °F 28.4 °F 53% 30.11 in 10.0 mi WNW 18.4 mph 25.3 mph N/A   Clear
10:55 AM 44.6 °F 37.4 °F 28.4 °F 53% 30.11 in 10.0 mi WNW 16.1 mph 25.3 mph N/A   Clear
11:15 AM 44.6 °F 37.4 °F 28.4 °F 53% 30.11 in 10.0 mi WNW 16.1 mph 26.5 mph N/A   Scattered Clouds
11:35 AM 46.4 °F 39.2 °F 28.4 °F 50% 30.12 in 10.0 mi WNW 18.4 mph 27.6 mph N/A   Scattered Clouds
11:55 AM 46.4 °F 39.2 °F 28.4 °F 50% 30.12 in 10.0 mi WNW 18.4 mph 24.2 mph N/A   Mostly Cloudy
12:15 PM 46.4 °F 39.0 °F 28.4 °F 50% 30.11 in 10.0 mi WNW 19.6 mph 26.5 mph N/A   Mostly Cloudy
12:35 PM 46.4 °F 39.0 °F 28.4 °F 50% 30.12 in 10.0 mi WNW 19.6 mph 28.8 mph N/A   Mostly Cloudy
12:55 PM 48.2 °F - 28.4 °F 46% 30.12 in 10.0 mi WNW 18.4 mph 27.6 mph N/A   Scattered Clouds
1:15 PM 50.0 °F - 28.4 °F 43% 30.11 in 10.0 mi WNW 18.4 mph 25.3 mph N/A   Scattered Clouds
1:35 PM 50.0 °F - 28.4 °F 43% 30.11 in 10.0 mi West 19.6 mph 28.8 mph N/A   Scattered Clouds
1:55 PM 50.0 °F - 28.4 °F 43% 30.11 in 10.0 mi NW 15.0 mph 28.8 mph N/A   Mostly Cloudy
2:15 PM 50.0 °F - 28.4 °F 43% 30.11 in 10.0 mi WNW 18.4 mph 25.3 mph N/A   Overcast
2:35 PM 50.0 °F - 28.4 °F 43% 30.11 in 10.0 mi WNW 20.7 mph 29.9 mph N/A   Mostly Cloudy
2:55 PM 50.0 °F - 28.4 °F 43% 30.11 in 10.0 mi WNW 21.9 mph 27.6 mph N/A   Mostly Cloudy
3:15 PM 50.0 °F - 28.4 °F 43% 30.12 in 10.0 mi WNW 19.6 mph 27.6 mph N/A   Mostly Cloudy
3:35 PM 50.0 °F - 28.4 °F 43% 30.12 in 10.0 mi NW 15.0 mph 23.0 mph N/A   Mostly Cloudy
3:55 PM 50.0 °F - 28.4 °F 43% 30.12 in 10.0 mi West 17.3 mph 24.2 mph N/A   Scattered Clouds
4:15 PM 50.0 °F - 28.4 °F 43% 30.11 in 10.0 mi WNW 21.9 mph 26.5 mph N/A   Scattered Clouds
4:35 PM 51.8 °F - 28.4 °F 41% 30.12 in 10.0 mi NW 17.3 mph 27.6 mph N/A   Scattered Clouds
4:55 PM 50.0 °F - 28.4 °F 43% 30.13 in 10.0 mi NW 12.7 mph 29.9 mph N/A   Mostly Cloudy
5:15 PM 50.0 °F - 28.4 °F 43% 30.13 in 10.0 mi NW 15.0 mph 20.7 mph N/A   Overcast
5:35 PM 50.0 °F - 28.4 °F 43% 30.14 in 10.0 mi NW 9.2 mph 19.6 mph N/A   Overcast
5:55 PM 50.0 °F - 28.4 °F 43% 30.14 in 10.0 mi NW 15.0 mph 21.9 mph N/A   Overcast
6:15 PM 50.0 °F - 28.4 °F 43% 30.15 in 10.0 mi NNW 11.5 mph 18.4 mph N/A   Overcast
6:55 PM 48.2 °F - 26.6 °F 43% 30.17 in 10.0 mi WNW 12.7 mph 20.7 mph N/A   Mostly Cloudy
7:15 PM 48.2 °F - 28.4 °F 46% 30.17 in 10.0 mi NW 9.2 mph - N/A   Overcast
7:35 PM 46.4 °F 40.7 °F 26.6 °F 46% 30.18 in 10.0 mi NW 12.7 mph 23.0 mph N/A   Overcast
7:55 PM 46.4 °F 41.5 °F 28.4 °F 50% 30.19 in 10.0 mi NW 10.4 mph - N/A   Mostly Cloudy
8:15 PM 46.4 °F 41.9 °F 28.4 °F 50% 30.20 in 10.0 mi WNW 9.2 mph 16.1 mph N/A   Scattered Clouds
8:35 PM 44.6 °F 39.7 °F 28.4 °F 53% 30.20 in 10.0 mi WNW 9.2 mph - N/A   Clear
8:55 PM 44.6 °F 41.4 °F 28.4 °F 53% 30.21 in 10.0 mi West 5.8 mph - N/A   Clear
9:15 PM 42.8 °F 39.3 °F 30.2 °F 61% 30.21 in 10.0 mi WNW 5.8 mph - N/A   Clear
9:35 PM 42.8 °F 40.1 °F 30.2 °F 61% 30.22 in 10.0 mi WNW 4.6 mph - N/A   Clear
9:55 PM 41.0 °F 38.0 °F 30.2 °F 65% 30.23 in 10.0 mi West 4.6 mph - N/A   Clear
10:15 PM 41.0 °F 37.1 °F 30.2 °F 65% 30.23 in 10.0 mi WNW 5.8 mph - N/A   Clear
10:35 PM 41.0 °F 39.0 °F 30.2 °F 65% 30.25 in 10.0 mi West 3.5 mph - N/A   Clear
10:55 PM 41.0 °F 38.0 °F 30.2 °F 65% 30.25 in 10.0 mi West 4.6 mph - N/A   Clear
11:15 PM 41.0 °F 37.1 °F 30.2 °F 65% 30.25 in 10.0 mi WNW 5.8 mph - N/A   Clear
11:35 PM 41.0 °F 37.1 °F 30.2 °F 65% 30.25 in 10.0 mi WNW 5.8 mph - N/A   Clear
11:55 PM 41.0 °F 36.4 °F 30.2 °F 65% 30.26 in 10.0 mi WNW 6.9 mph - N/A   Clear